Time;durP1;ratioP1;P1;durP2;ratioP2;P2;SDS_P1;SDS_P2;PMS_P1;PMS_P2;Temp;Humidity;BMP_temperature;BMP_pressure;BME280_temperature;BME280_humidity;BME280_pressure;Samples;Min_cycle;Max_cycle;Signal;HPM_P1;HPM_P2
2024/04/07 00:00:48;;;;;;;4.55;1.10;;;;;;;26.74;33.73;100575.78;4978040;28;20110;-65
2024/04/07 00:03:14;;;;;;;7.28;1.27;;;;;;;26.72;33.99;100577.91;4962150;28;20501;-65
2024/04/07 00:05:39;;;;;;;3.40;0.80;;;;;;;26.66;33.94;100584.41;4961030;28;20031;-65
2024/04/07 00:08:05;;;;;;;2.28;1.02;;;;;;;26.65;33.45;100588.22;4961012;28;20426;-65
2024/04/07 00:10:30;;;;;;;2.80;1.15;;;;;;;26.64;34.05;100608.53;4945307;28;20034;-65
2024/04/07 00:12:56;;;;;;;6.65;2.95;;;;;;;26.62;34.07;100594.19;4978034;28;20395;-65
2024/04/07 00:15:22;;;;;;;5.50;0.95;;;;;;;26.59;33.79;100616.66;4978337;28;20121;-65
2024/04/07 00:17:47;;;;;;;4.78;0.98;;;;;;;26.60;33.77;100607.34;4960844;28;20132;-65
2024/04/07 00:20:13;;;;;;;3.60;0.90;;;;;;;26.58;33.81;100607.56;4944318;28;20045;-65
2024/04/07 00:22:39;;;;;;;2.08;1.00;;;;;;;26.57;34.30;100616.06;4944468;28;20124;-65
2024/04/07 00:25:05;;;;;;;6.07;1.77;;;;;;;26.53;33.88;100629.44;4960454;28;20102;-65
2024/04/07 00:27:30;;;;;;;5.20;1.10;;;;;;;26.54;33.53;100624.78;4960184;28;20035;-65
2024/04/07 00:29:55;;;;;;;3.08;0.88;;;;;;;26.54;34.17;100605.56;4960269;28;20035;-65
2024/04/07 00:32:21;;;;;;;2.75;1.02;;;;;;;26.51;34.38;100608.78;4944192;28;20038;-65
2024/04/07 00:34:50;;;;;;;7.55;1.20;;;;;;;26.49;34.28;100625.47;4960431;28;20065;-66
2024/04/07 00:37:16;;;;;;;5.75;1.05;;;;;;;26.47;34.39;100629.53;4977658;28;20042;-65
2024/04/07 00:39:43;;;;;;;6.22;0.80;;;;;;;26.45;33.68;100642.69;4960215;28;20170;-65
2024/04/07 00:42:08;;;;;;;17.90;2.45;;;;;;;26.42;34.38;100644.00;4977416;28;20034;-65
2024/04/07 00:44:35;;;;;;;20.48;1.35;;;;;;;26.41;34.38;100644.25;4977312;28;20486;-65
2024/04/07 00:47:01;;;;;;;3.25;1.23;;;;;;;26.37;34.34;100662.28;4960137;28;20038;-65
2024/04/07 00:49:26;;;;;;;5.28;1.17;;;;;;;26.34;34.46;100668.25;4944027;28;20027;-65
2024/04/07 00:51:52;;;;;;;5.70;1.10;;;;;;;26.31;34.21;100661.31;4959705;28;20125;-65
2024/04/07 00:54:18;;;;;;;6.40;1.48;;;;;;;26.31;34.45;100657.72;4959704;28;20035;-65
2024/04/07 00:56:43;;;;;;;6.18;1.23;;;;;;;26.28;34.45;100664.53;4943903;28;20402;-65
2024/04/07 00:59:09;;;;;;;5.53;0.80;;;;;;;26.30;34.25;100678.84;4977058;28;20026;-65
2024/04/07 01:01:34;;;;;;;5.45;0.65;;;;;;;26.30;33.90;100689.03;4959842;28;20046;-65
2024/04/07 01:04:02;;;;;;;4.80;0.80;;;;;;;26.29;34.32;100714.81;4944018;28;20035;-65
2024/04/07 01:06:27;;;;;;;3.72;1.75;;;;;;;26.30;34.21;100708.25;4959503;28;20058;-65
2024/04/07 01:08:54;;;;;;;6.80;1.40;;;;;;;26.27;34.55;100727.94;4927783;28;20109;-65
2024/04/07 01:11:28;;;;;;;5.75;0.90;;;;;;;26.26;34.72;100723.53;4959011;28;20042;-65
2024/04/07 01:13:54;;;;;;;3.50;1.05;;;;;;;26.24;34.25;100733.91;4959643;28;20045;-65
2024/04/07 01:16:23;;;;;;;8.02;0.98;;;;;;;26.25;34.58;100730.91;4927722;28;20109;-65
2024/04/07 01:18:48;;;;;;;2.88;0.93;;;;;;;26.27;34.22;100730.69;4959763;28;20034;-65
2024/04/07 01:21:14;;;;;;;5.32;1.05;;;;;;;26.26;34.64;100732.59;4959656;28;20533;-69
2024/04/07 01:23:40;;;;;;;3.70;1.33;;;;;;;26.28;34.49;100751.59;4959478;28;20419;-69
2024/04/07 01:26:06;;;;;;;2.53;0.82;;;;;;;26.28;35.39;100757.06;4943345;28;20034;-69
2024/04/07 01:28:32;;;;;;;2.10;1.17;;;;;;;26.26;35.17;100748.25;4943189;28;20035;-69
2024/04/07 01:30:58;;;;;;;4.63;0.93;;;;;;;26.27;35.04;100760.91;4959456;28;20031;-69
2024/04/07 01:33:23;;;;;;;7.75;1.70;;;;;;;26.26;35.07;100814.16;4976226;28;20415;-69
2024/04/07 01:35:49;;;;;;;2.42;0.90;;;;;;;26.25;35.63;100796.00;4976572;28;20530;-69
2024/04/07 01:38:15;;;;;;;2.88;0.70;;;;;;;26.24;35.51;100805.31;4976479;28;20042;-69
2024/04/07 01:40:40;;;;;;;3.45;1.10;;;;;;;26.22;35.28;100801.94;4943164;28;20038;-69
2024/04/07 01:43:06;;;;;;;5.32;1.33;;;;;;;26.18;35.94;100800.75;4927204;28;20090;-69
2024/04/07 01:45:31;;;;;;;7.03;1.02;;;;;;;26.16;35.44;100809.22;4958926;28;20034;-69
2024/04/07 01:47:57;;;;;;;5.25;1.33;;;;;;;26.16;35.53;100825.69;4926980;28;20490;-69
2024/04/07 01:50:23;;;;;;;6.40;1.27;;;;;;;26.11;35.53;100802.69;4958914;28;20113;-69
2024/04/07 01:52:48;;;;;;;5.93;1.23;;;;;;;26.10;35.40;100831.25;4942848;28;20045;-69
2024/04/07 01:55:13;;;;;;;5.18;1.20;;;;;;;26.09;35.50;100827.66;4958739;28;20042;-69
2024/04/07 01:57:39;;;;;;;9.32;1.27;;;;;;;26.05;35.95;100843.75;4942624;28;20030;-69
2024/04/07 02:00:07;;;;;;;3.58;0.82;;;;;;;26.09;35.69;100846.88;4976841;28;20611;-69
2024/04/07 02:02:33;;;;;;;5.35;1.10;;;;;;;26.05;35.69;100849.25;4958712;28;20031;-69
2024/04/07 02:04:59;;;;;;;3.75;1.20;;;;;;;26.07;35.45;100864.66;4958660;28;20503;-69
2024/04/07 02:07:24;;;;;;;4.78;1.23;;;;;;;26.03;36.30;100875.25;4958735;28;20061;-69
2024/04/07 02:09:50;;;;;;;3.80;2.45;;;;;;;26.00;36.13;100876.56;4958742;28;20126;-69
2024/04/07 02:12:15;;;;;;;7.70;1.10;;;;;;;25.98;35.89;100884.19;4958451;28;20402;-69
2024/04/07 02:14:41;;;;;;;2.92;1.15;;;;;;;25.95;36.25;100898.38;4958673;28;20114;-69
2024/04/07 02:17:07;;;;;;;5.10;1.85;;;;;;;25.94;36.25;100915.06;4926812;28;20054;-69
2024/04/07 02:19:32;;;;;;;6.75;1.10;;;;;;;25.87;36.11;100906.06;4975775;28;20050;-69
2024/04/07 02:21:58;;;;;;;10.00;1.60;;;;;;;25.85;36.92;100928.25;4941754;28;20062;-69
2024/04/07 02:24:23;;;;;;;3.95;1.52;;;;;;;25.81;36.35;100938.00;4941522;28;20121;-69
2024/04/07 02:26:48;;;;;;;6.47;1.55;;;;;;;25.80;36.62;100935.47;4926194;28;20038;-69
2024/04/07 02:29:14;;;;;;;4.40;1.13;;;;;;;25.75;36.44;100943.56;4958120;28;20043;-69
2024/04/07 02:31:40;;;;;;;5.18;1.70;;;;;;;25.68;36.52;100954.63;4942352;28;20170;-64
2024/04/07 02:34:08;;;;;;;5.22;1.10;;;;;;;25.67;37.11;100947.44;4942121;28;20503;-65
2024/04/07 02:36:34;;;;;;;4.20;0.90;;;;;;;25.63;36.72;100943.44;4942281;28;20589;-64
2024/04/07 02:38:59;;;;;;;3.85;0.93;;;;;;;25.58;36.53;100947.94;4958058;28;20101;-64
2024/04/07 02:41:25;;;;;;;3.78;0.95;;;;;;;25.57;36.41;100952.59;4958008;28;20114;-65
2024/04/07 02:43:50;;;;;;;3.58;0.70;;;;;;;25.55;36.57;100962.94;4957968;28;20035;-64
2024/04/07 02:49:00;;;;;;;6.65;1.00;;;;;;;25.51;37.11;100925.22;4960642;28;20121;-65
2024/04/07 02:51:25;;;;;;;6.25;0.90;;;;;;;25.52;36.95;100949.66;4941489;28;20137;-65
2024/04/07 02:53:51;;;;;;;4.00;1.00;;;;;;;25.47;36.86;100941.28;4975224;28;20039;-65
2024/04/07 02:56:17;;;;;;;1.08;0.47;;;;;;;25.49;36.76;100968.50;4957913;28;20031;-65
2024/04/07 02:58:43;;;;;;;1.60;0.75;;;;;;;25.45;36.64;100973.56;4959285;28;20043;-65
2024/04/07 03:01:08;;;;;;;3.58;1.25;;;;;;;25.43;37.05;100989.41;4957817;28;20082;-64
2024/04/07 03:03:34;;;;;;;3.72;0.95;;;;;;;25.39;36.70;101005.47;4974737;28;20173;-64
2024/04/07 03:06:10;;;;;;;1.77;0.60;;;;;;;25.36;36.95;101000.41;4925874;28;20526;-64
2024/04/07 03:08:36;;;;;;;2.00;1.38;;;;;;;25.37;37.01;100998.50;4957382;28;20039;-64
2024/04/07 03:11:02;;;;;;;3.30;0.60;;;;;;;25.34;37.03;101008.03;4925649;28;20038;-64
2024/04/07 03:13:28;;;;;;;3.15;0.70;;;;;;;25.33;36.91;101013.72;4974674;28;20078;-65
2024/04/07 03:15:54;;;;;;;4.65;0.77;;;;;;;25.27;37.16;101014.59;4974805;28;20110;-64
2024/04/07 03:18:20;;;;;;;5.95;0.73;;;;;;;25.28;37.15;101035.50;4941405;28;20034;-65
2024/04/07 03:20:46;;;;;;;3.00;1.10;;;;;;;25.23;36.86;101024.34;4957427;28;20047;-65
2024/04/07 03:23:12;;;;;;;1.65;1.17;;;;;;;25.19;37.16;101021.19;4957488;28;20495;-64
2024/04/07 03:25:38;;;;;;;5.43;1.05;;;;;;;25.17;37.00;101031.53;4974575;28;20037;-65
2024/04/07 03:28:04;;;;;;;4.00;0.75;;;;;;;25.13;36.78;101022.06;4957389;28;20613;-64
2024/04/07 03:30:29;;;;;;;8.98;0.80;;;;;;;25.16;37.14;101034.50;4940966;28;20046;-65
2024/04/07 03:32:55;;;;;;;2.28;0.43;;;;;;;25.12;37.15;100992.97;4941171;28;20503;-64
2024/04/07 03:35:20;;;;;;;3.15;0.70;;;;;;;25.15;37.25;100997.19;4956929;28;20069;-65
2024/04/07 03:37:46;;;;;;;2.33;0.80;;;;;;;25.14;37.19;101012.78;4974517;28;20038;-64
2024/04/07 03:40:12;;;;;;;2.08;0.63;;;;;;;25.15;37.06;101024.59;4957384;28;20495;-64
2024/04/07 03:42:38;;;;;;;4.53;0.60;;;;;;;25.14;37.07;101022.91;4941254;28;20031;-64
2024/04/07 03:45:04;;;;;;;3.08;0.60;;;;;;;25.13;37.09;101033.03;4940813;28;20041;-64
2024/04/07 03:47:29;;;;;;;5.22;0.60;;;;;;;25.16;37.42;101012.56;4973956;28;20038;-64
2024/04/07 03:49:55;;;;;;;5.03;0.90;;;;;;;25.16;37.12;101010.66;4925235;28;20486;-65
2024/04/07 03:52:20;;;;;;;1.85;1.30;;;;;;;25.14;37.20;101001.81;4957051;28;20117;-64
2024/04/07 03:54:45;;;;;;;2.17;0.57;;;;;;;25.14;37.40;100966.16;4941196;28;20548;-64
2024/04/07 03:57:13;;;;;;;2.33;0.82;;;;;;;25.11;37.39;101001.41;4941095;28;20459;-65
2024/04/07 03:59:39;;;;;;;5.57;0.70;;;;;;;25.05;37.04;101013.25;4941101;28;20407;-65
2024/04/07 04:02:04;;;;;;;3.45;0.57;;;;;;;25.00;37.48;101037.75;4956830;28;20062;-64
2024/04/07 04:04:31;;;;;;;6.53;0.73;;;;;;;24.97;37.29;101043.66;4956855;28;20130;-65
2024/04/07 04:06:56;;;;;;;4.53;0.60;;;;;;;24.94;36.70;101046.84;4940868;28;20074;-64
2024/04/07 04:09:22;;;;;;;1.00;0.43;;;;;;;24.92;37.19;101040.75;4974221;28;20039;-64
2024/04/07 04:11:50;;;;;;;1.90;0.40;;;;;;;24.88;36.83;101023.88;4957319;28;20051;-64
2024/04/07 04:14:16;;;;;;;2.33;0.40;;;;;;;24.81;36.88;101037.63;4956792;28;20085;-64
2024/04/07 04:16:41;;;;;;;0.65;0.25;;;;;;;24.77;36.90;101063.75;4956917;28;20081;-64
2024/04/07 04:19:07;;;;;;;1.17;0.22;;;;;;;24.77;36.43;101071.13;4956745;28;20042;-64
2024/04/07 04:21:33;;;;;;;2.22;0.43;;;;;;;24.72;36.48;101063.56;4956912;28;20411;-65
2024/04/07 04:23:59;;;;;;;1.58;0.10;;;;;;;24.72;36.56;101049.00;4940434;28;20047;-65
2024/04/07 04:26:26;;;;;;;0.30;0.10;;;;;;;24.69;36.26;101039.31;4956892;28;20034;-64
2024/04/07 04:28:53;;;;;;;0.50;0.20;;;;;;;24.72;35.91;101055.34;4974515;28;20030;-64
2024/04/07 04:31:18;;;;;;;1.42;0.08;;;;;;;24.70;36.10;101038.28;4942331;28;20054;-70
2024/04/07 04:33:44;;;;;;;2.60;0.20;;;;;;;24.71;36.31;101034.47;4942094;28;20081;-64
2024/04/07 04:36:13;;;;;;;1.58;0.32;;;;;;;24.69;36.27;101020.13;4956965;28;20043;-64
2024/04/07 04:38:39;;;;;;;0.80;0.20;;;;;;;24.65;36.36;101031.75;4956671;28;20039;-64
2024/04/07 04:41:05;;;;;;;0.30;0.05;;;;;;;24.60;35.70;101029.66;4941044;28;20047;-65
2024/04/07 04:43:30;;;;;;;0.50;0.28;;;;;;;24.53;36.16;101037.06;4956491;28;20019;-64
2024/04/07 04:46:04;;;;;;;0.55;0.30;;;;;;;24.50;36.21;101042.97;4957222;28;20031;-64
2024/04/07 04:48:36;;;;;;;1.00;0.25;;;;;;;24.43;35.83;101036.66;4944214;28;20050;-64
2024/04/07 04:51:03;;;;;;;0.38;0.13;;;;;;;24.39;36.20;101032.66;4959972;28;20500;-64
2024/04/07 04:53:29;;;;;;;1.13;0.25;;;;;;;24.34;36.27;101033.28;4977121;28;20563;-64
2024/04/07 04:55:59;;;;;;;1.42;0.20;;;;;;;24.27;36.09;101028.91;4960032;28;20130;-65
2024/04/07 04:58:24;;;;;;;0.25;0.10;;;;;;;24.19;36.41;101029.13;4944103;28;20043;-64
2024/04/07 05:00:50;;;;;;;0.82;0.30;;;;;;;24.12;36.45;101028.31;4959917;28;20159;-64
2024/04/07 05:03:15;;;;;;;1.58;0.22;;;;;;;24.04;36.30;101015.63;4943968;28;20031;-65
2024/04/07 05:05:40;;;;;;;1.00;0.15;;;;;;;24.03;37.33;101021.31;4943876;28;20487;-64
2024/04/07 05:08:07;;;;;;;0.85;0.40;;;;;;;23.97;36.67;101017.53;4959809;28;20031;-64
2024/04/07 05:10:33;;;;;;;1.40;0.40;;;;;;;23.89;36.96;101020.50;4959951;28;20035;-64
2024/04/07 05:12:59;;;;;;;2.20;0.50;;;;;;;23.89;36.86;101005.97;4959695;28;20039;-64
2024/04/07 05:15:24;;;;;;;3.00;0.63;;;;;;;23.88;37.57;101009.75;4976675;28;20030;-64
2024/04/07 05:17:50;;;;;;;1.30;0.40;;;;;;;23.86;36.97;101009.13;4943741;28;20093;-62
2024/04/07 05:20:15;;;;;;;2.17;0.55;;;;;;;23.86;37.84;101031.00;4927801;28;20450;-64
2024/04/07 05:22:42;;;;;;;3.33;1.92;;;;;;;23.81;37.40;101008.94;4959624;28;20035;-64
2024/04/07 05:25:08;;;;;;;4.85;0.60;;;;;;;23.81;37.67;101015.25;4927622;28;20522;-64
2024/04/07 05:27:34;;;;;;;2.60;0.50;;;;;;;23.80;37.79;101023.66;4943466;28;20039;-64
2024/04/07 05:30:00;;;;;;;1.88;0.60;;;;;;;23.82;37.34;101035.22;4959696;28;20035;-64
2024/04/07 05:32:25;;;;;;;0.65;0.52;;;;;;;23.81;37.60;101031.66;4959328;28;20038;-64
2024/04/07 05:34:51;;;;;;;6.32;1.95;;;;;;;23.85;37.40;101037.53;4976462;28;20114;-65
2024/04/07 05:37:17;;;;;;;5.15;1.20;;;;;;;23.84;37.68;101042.19;4927392;28;20121;-64
2024/04/07 05:39:50;;;;;;;0.43;0.30;;;;;;;23.87;37.99;101052.69;4959333;28;20027;-64
2024/04/07 05:42:16;;;;;;;2.22;0.30;;;;;;;23.89;37.71;101066.19;4943436;28;20038;-64
2024/04/07 05:44:41;;;;;;;2.15;0.70;;;;;;;23.91;38.36;101067.66;4976397;28;20459;-64
2024/04/07 05:47:08;;;;;;;2.20;0.47;;;;;;;23.95;37.87;101065.34;4943221;28;20122;-64
2024/04/07 05:49:34;;;;;;;1.27;0.63;;;;;;;24.02;37.42;101055.22;4959240;28;20062;-64
2024/04/07 05:52:00;;;;;;;3.88;0.70;;;;;;;24.04;38.56;101059.41;4958905;28;20073;-64
2024/04/07 05:54:29;;;;;;;2.78;0.82;;;;;;;24.05;38.04;101066.59;4958758;28;20059;-65
2024/04/07 05:56:55;;;;;;;1.40;0.75;;;;;;;24.06;37.82;101067.44;4958646;28;20431;-64
2024/04/07 05:59:21;;;;;;;3.67;0.52;;;;;;;24.04;37.98;101069.53;4959084;28;20077;-64
2024/04/07 06:01:46;;;;;;;2.33;0.70;;;;;;;24.04;38.07;101075.00;4942910;28;20039;-64
2024/04/07 06:04:11;;;;;;;0.88;0.43;;;;;;;24.05;38.21;101079.44;4942881;28;20097;-65
2024/04/07 06:06:37;;;;;;;4.22;0.50;;;;;;;24.08;38.70;101084.50;4927902;28;20031;-64
2024/04/07 06:09:03;;;;;;;3.55;0.60;;;;;;;24.11;37.96;101073.16;4958500;28;20039;-64
2024/04/07 06:11:30;;;;;;;1.15;0.70;;;;;;;24.14;38.46;101075.47;4958730;28;20046;-64
2024/04/07 06:13:55;;;;;;;1.73;0.60;;;;;;;24.17;38.36;101091.47;4975918;28;20117;-64
2024/04/07 06:16:21;;;;;;;0.75;0.60;;;;;;;24.18;38.14;101090.41;4942424;28;20530;-64
2024/04/07 06:18:47;;;;;;;1.80;0.52;;;;;;;24.25;37.53;101088.53;4942574;28;20042;-65
2024/04/07 06:21:12;;;;;;;4.03;0.60;;;;;;;24.31;37.50;101109.59;4958614;28;20038;-64
2024/04/07 06:23:40;;;;;;;1.85;0.47;;;;;;;24.35;38.20;101102.59;4926785;28;20448;-64
2024/04/07 06:26:06;;;;;;;2.35;0.30;;;;;;;24.41;37.83;101109.13;4958292;28;20112;-64
2024/04/07 06:28:31;;;;;;;1.13;0.40;;;;;;;24.42;37.81;101106.19;4942327;28;20074;-64
2024/04/07 06:30:57;;;;;;;4.88;0.98;;;;;;;24.47;37.57;101092.69;4926464;28;20055;-64
2024/04/07 06:33:26;;;;;;;0.65;0.40;;;;;;;24.52;37.92;101097.53;4975171;28;20189;-65
2024/04/07 06:35:55;;;;;;;2.72;0.73;;;;;;;24.53;37.45;101097.34;4943050;28;20042;-64
2024/04/07 06:38:20;;;;;;;2.47;0.50;;;;;;;24.60;37.39;101103.63;4957670;28;20034;-65
2024/04/07 06:40:46;;;;;;;5.85;0.70;;;;;;;24.68;37.52;101114.34;4942110;28;20115;-64
2024/04/07 06:43:11;;;;;;;5.70;0.68;;;;;;;24.82;37.36;101112.44;4941966;28;20031;-65
2024/04/07 06:45:36;;;;;;;2.15;0.65;;;;;;;24.92;36.87;101106.53;4941988;28;20042;-64
2024/04/07 06:48:02;;;;;;;4.07;0.60;;;;;;;24.99;36.94;101104.59;4975194;28;20039;-64
2024/04/07 06:50:28;;;;;;;1.70;0.60;;;;;;;25.05;37.32;101109.22;4975166;28;20084;-64
2024/04/07 06:52:54;;;;;;;1.30;0.60;;;;;;;25.02;36.97;101095.94;4941778;28;20563;-64
2024/04/07 06:55:19;;;;;;;3.70;0.75;;;;;;;25.02;37.57;101112.38;4941628;28;20073;-64
2024/04/07 06:57:45;;;;;;;1.30;0.55;;;;;;;25.04;37.17;101115.78;4958035;28;20026;-64
2024/04/07 07:00:12;;;;;;;2.92;0.98;;;;;;;25.07;37.32;101123.56;4957527;28;20039;-64
2024/04/07 07:02:38;;;;;;;1.45;0.50;;;;;;;25.10;36.92;101131.38;4941991;28;20446;-64
2024/04/07 07:05:04;;;;;;;1.58;0.68;;;;;;;25.15;37.09;101140.63;4957836;28;20462;-65
2024/04/07 07:07:30;;;;;;;3.00;0.60;;;;;;;25.21;37.28;101138.91;4957504;28;20046;-65
2024/04/07 07:09:56;;;;;;;0.90;0.57;;;;;;;25.20;37.24;101126.25;4941402;28;20039;-64
2024/04/07 07:12:21;;;;;;;1.58;0.57;;;;;;;25.22;37.43;101127.72;4941662;28;20388;-64
2024/04/07 07:14:48;;;;;;;1.17;0.90;;;;;;;25.23;37.09;101136.78;4941512;28;20105;-64
2024/04/07 07:17:13;;;;;;;3.08;0.73;;;;;;;25.30;37.34;101141.16;4941415;28;20023;-64
2024/04/07 07:19:38;;;;;;;2.58;0.60;;;;;;;25.31;37.45;101158.47;4941535;28;20035;-64
2024/04/07 07:22:04;;;;;;;2.88;0.80;;;;;;;25.32;37.31;101146.47;4957432;28;20084;-64
2024/04/07 07:24:30;;;;;;;4.32;0.73;;;;;;;25.35;37.48;101157.81;4942836;28;20039;-65
2024/04/07 07:26:55;;;;;;;3.45;1.05;;;;;;;25.47;37.50;101163.50;4974560;28;20042;-64
2024/04/07 07:29:20;;;;;;;0.77;0.55;;;;;;;25.53;37.47;101170.84;4957279;28;20410;-64
2024/04/07 07:31:47;;;;;;;3.20;0.70;;;;;;;25.58;37.34;101157.31;4957319;28;20131;-64
2024/04/07 07:34:13;;;;;;;1.00;0.77;;;;;;;25.66;37.45;101162.56;4957147;28;20122;-65
2024/04/07 07:36:38;;;;;;;1.15;0.70;;;;;;;25.72;37.50;101167.16;4941132;28;20138;-65
2024/04/07 07:39:05;;;;;;;2.63;0.55;;;;;;;25.82;36.92;101175.78;4941519;28;20105;-65
2024/04/07 07:41:31;;;;;;;4.35;0.90;;;;;;;26.07;36.60;101173.06;4974537;28;20049;-65
2024/04/07 07:43:57;;;;;;;2.47;1.02;;;;;;;26.11;37.22;101170.69;4957141;28;20058;-64
2024/04/07 07:46:22;;;;;;;4.00;0.75;;;;;;;26.29;37.44;101171.66;4974336;28;20499;-65
2024/04/07 07:48:48;;;;;;;5.88;1.15;;;;;;;26.44;36.29;101176.81;4940843;28;20129;-64
2024/04/07 07:51:13;;;;;;;1.15;0.47;;;;;;;26.77;35.98;101179.28;4924854;28;20061;-65
2024/04/07 07:53:39;;;;;;;2.63;0.70;;;;;;;27.05;36.77;101183.22;4974265;28;20039;-64
2024/04/07 07:56:09;;;;;;;3.33;0.60;;;;;;;27.32;36.18;101188.41;4957090;28;20515;-64
2024/04/07 07:58:35;;;;;;;1.08;0.57;;;;;;;27.57;35.70;101194.69;4940974;28;20074;-65
2024/04/07 08:01:01;;;;;;;3.75;0.70;;;;;;;27.65;35.72;101183.38;4956986;28;20053;-65
2024/04/07 08:03:26;;;;;;;0.77;0.40;;;;;;;27.54;35.15;101193.25;4940713;28;20035;-65
2024/04/07 08:05:52;;;;;;;3.17;0.73;;;;;;;27.43;35.67;101184.94;4956951;28;20043;-65
2024/04/07 08:08:19;;;;;;;1.70;0.40;;;;;;;27.31;35.85;101179.31;4974006;28;20042;-65
2024/04/07 08:10:45;;;;;;;3.65;0.60;;;;;;;27.21;36.32;101189.19;4925208;28;20090;-65
2024/04/07 08:13:10;;;;;;;2.42;0.63;;;;;;;27.11;36.12;101193.31;4940752;28;20039;-65
2024/04/07 08:15:36;;;;;;;1.20;0.47;;;;;;;27.01;36.27;101187.50;4956661;28;20035;-65
2024/04/07 08:18:01;;;;;;;3.10;0.68;;;;;;;26.92;35.33;101188.00;4956777;28;20027;-65
2024/04/07 08:20:27;;;;;;;2.17;0.55;;;;;;;26.83;35.80;101192.97;4973808;28;20049;-65
2024/04/07 08:22:52;;;;;;;1.58;0.22;;;;;;;26.78;35.61;101192.81;4960644;28;20114;-64
2024/04/07 08:25:18;;;;;;;3.08;0.90;;;;;;;26.72;35.62;101199.19;4960273;28;20046;-64
2024/04/07 08:27:43;;;;;;;2.38;0.50;;;;;;;26.67;35.92;101196.28;4977425;28;20051;-64
2024/04/07 08:30:09;;;;;;;0.43;0.30;;;;;;;26.64;35.72;101202.22;4960276;28;20039;-64
2024/04/07 08:32:34;;;;;;;3.55;0.40;;;;;;;26.66;36.04;101197.34;4960159;28;20089;-64
2024/04/07 08:35:00;;;;;;;1.55;0.63;;;;;;;26.75;35.43;101201.47;4960280;28;20074;-65
2024/04/07 08:37:25;;;;;;;3.47;1.35;;;;;;;26.85;35.25;101196.34;4977566;28;20034;-64
2024/04/07 08:39:51;;;;;;;2.45;0.43;;;;;;;27.01;35.32;101197.66;4959620;28;20050;-65
2024/04/07 08:42:19;;;;;;;2.80;0.50;;;;;;;27.12;35.15;101200.50;4944029;28;20415;-65
2024/04/07 08:44:46;;;;;;;2.60;0.65;;;;;;;27.15;35.65;101204.69;4944317;28;20483;-64
2024/04/07 08:47:15;;;;;;;3.05;0.73;;;;;;;27.15;35.16;101205.56;4959966;28;20035;-64
2024/04/07 08:49:42;;;;;;;1.13;0.80;;;;;;;27.16;35.73;101201.72;4944024;28;20526;-64
2024/04/07 08:52:08;;;;;;;3.00;0.60;;;;;;;27.20;35.58;101202.09;4959911;28;20078;-64
2024/04/07 08:54:34;;;;;;;2.50;0.60;;;;;;;27.26;35.07;101201.19;4959934;28;20077;-65
2024/04/07 08:57:08;;;;;;;3.17;0.70;;;;;;;27.36;35.42;101206.16;4959857;28;20122;-64
2024/04/07 08:59:34;;;;;;;1.17;0.40;;;;;;;27.36;35.05;101206.97;4943554;28;20137;-64
2024/04/07 09:02:02;;;;;;;0.75;0.45;;;;;;;27.41;35.10;101203.59;4927938;28;20117;-64
2024/04/07 09:04:32;;;;;;;1.83;0.43;;;;;;;27.47;34.36;101208.19;4933669;29;20039;-65
2024/04/07 09:06:57;;;;;;;3.55;0.68;;;;;;;27.49;34.30;101206.03;4957882;29;20396;-64
2024/04/07 09:09:23;;;;;;;0.98;0.60;;;;;;;27.57;34.62;101216.72;4924768;29;20051;-64
2024/04/07 09:11:51;;;;;;;1.77;0.65;;;;;;;27.63;34.63;101207.53;4924734;29;20027;-64
2024/04/07 09:14:17;;;;;;;0.10;0.10;;;;;;;27.60;34.72;101210.75;4925027;29;20475;-66
2024/04/07 09:16:43;;;;;;;1.23;0.50;;;;;;;27.52;34.68;101211.91;4909144;29;20407;-64
2024/04/07 09:19:08;;;;;;;2.22;0.40;;;;;;;27.42;35.08;101208.00;4908722;28;20039;-64
2024/04/07 09:21:33;;;;;;;1.33;0.30;;;;;;;27.28;34.51;101225.72;4957613;29;20044;-64
2024/04/07 09:24:00;;;;;;;0.98;0.43;;;;;;;27.21;34.90;101224.97;4940232;29;20040;-64
2024/04/07 09:26:25;;;;;;;3.28;0.47;;;;;;;27.12;35.36;101228.00;4940311;28;20499;-64
2024/04/07 09:28:51;;;;;;;3.38;0.50;;;;;;;27.12;34.27;101221.66;4957240;29;20035;-64
2024/04/07 09:31:18;;;;;;;2.67;0.52;;;;;;;27.35;34.75;101220.97;4939652;28;20090;-64
2024/04/07 09:33:45;;;;;;;4.78;0.70;;;;;;;27.63;34.98;101224.06;4908400;29;20043;-64
2024/04/07 09:36:11;;;;;;;1.27;0.40;;;;;;;27.84;34.89;101225.47;4940251;29;20023;-66
2024/04/07 09:38:36;;;;;;;3.97;0.50;;;;;;;28.11;34.24;101226.81;4939792;29;20046;-65
2024/04/07 09:41:02;;;;;;;1.23;0.50;;;;;;;28.27;33.97;101231.66;4940057;29;20031;-64
2024/04/07 09:43:29;;;;;;;2.42;0.50;;;;;;;28.55;33.93;101225.47;4940028;29;20387;-64
2024/04/07 09:45:55;;;;;;;2.25;0.50;;;;;;;28.57;33.71;101220.56;4921627;29;20261;-66
2024/04/07 09:48:22;;;;;;;1.05;0.40;;;;;;;28.65;33.38;101228.50;4889454;29;20039;-66
2024/04/07 09:50:58;;;;;;;2.72;0.55;;;;;;;29.24;33.38;101236.59;4926700;29;20056;-64
2024/04/07 09:53:35;;;;;;;2.63;0.38;;;;;;;30.20;32.52;101223.94;4924278;29;20139;-66
2024/04/07 09:56:03;;;;;;;0.82;0.38;;;;;;;30.58;31.69;101216.63;4940297;29;20525;-64
2024/04/07 09:58:30;;;;;;;1.73;0.70;;;;;;;30.39;31.99;101220.72;4939761;29;20051;-64
2024/04/07 10:00:56;;;;;;;0.65;0.30;;;;;;;30.46;31.93;101215.84;4956765;29;20039;-63
2024/04/07 10:03:23;;;;;;;2.10;0.40;;;;;;;30.87;32.16;101213.75;4924049;29;20048;-64
2024/04/07 10:05:48;;;;;;;0.85;0.30;;;;;;;31.21;31.47;101207.09;4923786;29;20058;-67
2024/04/07 10:08:14;;;;;;;1.30;0.50;;;;;;;31.43;31.09;101209.88;4956559;29;20075;-67
2024/04/07 10:10:41;;;;;;;4.80;0.80;;;;;;;31.71;31.00;101213.28;4939408;29;20027;-66
2024/04/07 10:13:07;;;;;;;2.28;0.75;;;;;;;31.93;30.85;101220.75;4907779;29;20109;-65
2024/04/07 10:15:33;;;;;;;2.75;0.40;;;;;;;32.17;30.97;101213.81;4908186;29;20127;-64
2024/04/07 10:17:58;;;;;;;2.13;0.60;;;;;;;32.35;31.06;101213.44;4908417;29;20118;-65
2024/04/07 10:20:27;;;;;;;2.72;0.80;;;;;;;32.50;29.79;101209.94;4957244;29;20047;-64
2024/04/07 10:22:52;;;;;;;0.98;0.40;;;;;;;32.79;29.60;101214.94;4907612;29;20035;-65
2024/04/07 10:25:18;;;;;;;3.50;0.40;;;;;;;33.03;28.96;101209.81;4940467;29;20526;-64
2024/04/07 10:27:44;;;;;;;1.67;0.38;;;;;;;33.26;28.43;101214.16;4940525;29;20041;-65
2024/04/07 10:30:11;;;;;;;1.98;0.38;;;;;;;33.44;29.29;101207.31;4924374;29;20507;-65
2024/04/07 10:32:38;;;;;;;2.25;0.98;;;;;;;33.66;28.47;101205.19;4940082;29;20042;-65
2024/04/07 10:35:05;;;;;;;0.63;0.28;;;;;;;33.76;28.66;101206.06;4908282;29;20050;-65
2024/04/07 10:37:32;;;;;;;1.20;0.35;;;;;;;34.02;27.91;101201.41;4956031;29;20031;-65
2024/04/07 10:39:58;;;;;;;2.03;0.50;;;;;;;34.43;28.12;101197.56;4923099;29;20400;-68
2024/04/07 10:42:24;;;;;;;0.45;0.45;;;;;;;34.84;27.49;101205.94;4956346;29;20027;-65
2024/04/07 10:44:50;;;;;;;1.13;0.40;;;;;;;35.07;27.43;101208.13;4922521;29;20179;-64
2024/04/07 10:47:17;;;;;;;1.50;0.38;;;;;;;35.32;27.29;101207.22;4939068;29;20047;-64
2024/04/07 10:49:43;;;;;;;1.55;0.25;;;;;;;35.56;26.63;101211.06;4924594;29;20147;-65
2024/04/07 10:52:13;;;;;;;1.40;0.32;;;;;;;35.65;26.66;101206.56;4922512;29;20046;-67
2024/04/07 10:54:39;;;;;;;3.88;0.40;;;;;;;35.74;26.46;101201.19;4906972;29;20036;-67
2024/04/07 10:57:04;;;;;;;1.27;0.35;;;;;;;35.82;26.92;101193.06;4922714;29;20035;-65
2024/04/07 10:59:30;;;;;;;1.08;0.38;;;;;;;35.98;26.60;101202.19;4939368;29;20522;-70
2024/04/07 11:01:56;;;;;;;1.45;0.50;;;;;;;35.74;26.19;101202.03;4939455;29;20407;-71
2024/04/07 11:04:21;;;;;;;0.98;0.40;;;;;;;35.89;26.28;101190.81;4924296;29;20115;-70
2024/04/07 11:06:47;;;;;;;1.77;0.40;;;;;;;35.99;25.60;101199.09;4939833;29;20123;-71
2024/04/07 11:09:13;;;;;;;1.67;0.20;;;;;;;35.78;25.77;101185.56;4907933;29;20039;-72
2024/04/07 11:11:43;;;;;;;1.52;0.40;;;;;;;35.24;26.07;101186.34;4938560;29;20035;-65
2024/04/07 11:14:09;;;;;;;1.23;0.70;;;;;;;35.14;25.17;101196.69;4922396;29;20122;-66
2024/04/07 11:16:38;;;;;;;0.68;0.40;;;;;;;35.33;25.53;101200.53;4922534;29;20069;-64
2024/04/07 11:19:03;;;;;;;0.85;0.20;;;;;;;35.42;26.00;101201.63;4922206;29;20040;-65
2024/04/07 11:21:29;;;;;;;0.00;0.00;;;;;;;35.57;25.81;101196.00;4955427;29;20392;-65